sensor_id;sensor_type;location;lat;lon;timestamp;temperature;humidity
23147;DHT22;11742;53.532;-1.478;2023-06-22T00:02:41;23.90;68.60
23147;DHT22;11742;53.532;-1.478;2023-06-22T00:05:25;23.80;68.60
23147;DHT22;11742;53.532;-1.478;2023-06-22T00:08:09;23.80;68.70
23147;DHT22;11742;53.532;-1.478;2023-06-22T00:10:54;23.80;68.70
23147;DHT22;11742;53.532;-1.478;2023-06-22T00:13:38;23.70;68.60
23147;DHT22;11742;53.532;-1.478;2023-06-22T00:16:23;23.70;68.70
23147;DHT22;11742;53.532;-1.478;2023-06-22T00:19:07;23.70;68.90
23147;DHT22;11742;53.532;-1.478;2023-06-22T00:21:51;23.60;68.90
23147;DHT22;11742;53.532;-1.478;2023-06-22T00:24:39;23.60;69.00
23147;DHT22;11742;53.532;-1.478;2023-06-22T00:27:24;23.60;69.00
23147;DHT22;11742;53.532;-1.478;2023-06-22T00:30:08;23.60;69.00
23147;DHT22;11742;53.532;-1.478;2023-06-22T00:32:52;23.50;68.90
23147;DHT22;11742;53.532;-1.478;2023-06-22T00:35:37;23.50;68.90
23147;DHT22;11742;53.532;-1.478;2023-06-22T00:38:25;23.40;69.00
23147;DHT22;11742;53.532;-1.478;2023-06-22T00:41:09;23.40;68.90
23147;DHT22;11742;53.532;-1.478;2023-06-22T00:43:54;23.40;69.00
23147;DHT22;11742;53.532;-1.478;2023-06-22T00:46:38;23.30;69.00
23147;DHT22;11742;53.532;-1.478;2023-06-22T00:49:22;23.30;68.90
23147;DHT22;11742;53.532;-1.478;2023-06-22T00:52:07;23.30;69.00
23147;DHT22;11742;53.532;-1.478;2023-06-22T00:54:58;23.20;68.70
23147;DHT22;11742;53.532;-1.478;2023-06-22T00:57:45;23.20;68.70
23147;DHT22;11742;53.532;-1.478;2023-06-22T01:00:30;23.20;68.70
23147;DHT22;11742;53.532;-1.478;2023-06-22T01:03:14;23.20;68.60
23147;DHT22;11742;53.532;-1.478;2023-06-22T01:06:08;23.10;68.50
23147;DHT22;11742;53.532;-1.478;2023-06-22T01:08:56;23.00;68.50
23147;DHT22;11742;53.532;-1.478;2023-06-22T01:11:45;23.00;68.50
23147;DHT22;11742;53.532;-1.478;2023-06-22T01:14:42;23.00;68.60
23147;DHT22;11742;53.532;-1.478;2023-06-22T01:17:27;22.90;68.60
23147;DHT22;11742;53.532;-1.478;2023-06-22T01:20:13;22.90;68.70
23147;DHT22;11742;53.532;-1.478;2023-06-22T01:28:57;22.80;68.50
23147;DHT22;11742;53.532;-1.478;2023-06-22T01:31:42;22.80;68.60
23147;DHT22;11742;53.532;-1.478;2023-06-22T01:34:27;22.70;68.60
23147;DHT22;11742;53.532;-1.478;2023-06-22T01:37:12;22.70;68.70
23147;DHT22;11742;53.532;-1.478;2023-06-22T01:39:58;22.70;68.80
23147;DHT22;11742;53.532;-1.478;2023-06-22T01:42:42;22.60;68.80
23147;DHT22;11742;53.532;-1.478;2023-06-22T01:45:27;22.60;69.00
23147;DHT22;11742;53.532;-1.478;2023-06-22T01:48:11;22.60;68.90
23147;DHT22;11742;53.532;-1.478;2023-06-22T01:50:55;22.60;69.00
23147;DHT22;11742;53.532;-1.478;2023-06-22T01:53:39;22.60;69.00
23147;DHT22;11742;53.532;-1.478;2023-06-22T01:56:24;22.50;68.90
23147;DHT22;11742;53.532;-1.478;2023-06-22T02:02:20;22.50;69.10
23147;DHT22;11742;53.532;-1.478;2023-06-22T02:05:10;22.40;69.10
23147;DHT22;11742;53.532;-1.478;2023-06-22T02:11:00;22.40;69.10
23147;DHT22;11742;53.532;-1.478;2023-06-22T02:13:46;22.40;69.10
23147;DHT22;11742;53.532;-1.478;2023-06-22T02:16:30;22.40;69.20
23147;DHT22;11742;53.532;-1.478;2023-06-22T02:19:15;22.30;69.10
23147;DHT22;11742;53.532;-1.478;2023-06-22T02:21:59;22.30;69.20
23147;DHT22;11742;53.532;-1.478;2023-06-22T02:24:44;22.30;69.10
23147;DHT22;11742;53.532;-1.478;2023-06-22T02:27:28;22.20;69.20
23147;DHT22;11742;53.532;-1.478;2023-06-22T02:30:12;22.20;69.20
23147;DHT22;11742;53.532;-1.478;2023-06-22T02:32:58;22.20;69.20
23147;DHT22;11742;53.532;-1.478;2023-06-22T02:35:43;22.20;69.20
23147;DHT22;11742;53.532;-1.478;2023-06-22T02:38:31;22.20;69.20
23147;DHT22;11742;53.532;-1.478;2023-06-22T02:41:18;22.10;69.20
23147;DHT22;11742;53.532;-1.478;2023-06-22T02:44:03;22.10;69.10
23147;DHT22;11742;53.532;-1.478;2023-06-22T02:46:47;22.10;69.10
23147;DHT22;11742;53.532;-1.478;2023-06-22T02:49:31;22.10;69.10
23147;DHT22;11742;53.532;-1.478;2023-06-22T02:52:16;22.00;69.10
23147;DHT22;11742;53.532;-1.478;2023-06-22T02:55:00;22.00;69.10
23147;DHT22;11742;53.532;-1.478;2023-06-22T02:57:44;22.00;69.20
23147;DHT22;11742;53.532;-1.478;2023-06-22T03:00:30;22.00;69.30
23147;DHT22;11742;53.532;-1.478;2023-06-22T03:03:15;21.90;69.30
23147;DHT22;11742;53.532;-1.478;2023-06-22T03:05:59;21.90;69.30
23147;DHT22;11742;53.532;-1.478;2023-06-22T03:08:44;21.90;69.40
23147;DHT22;11742;53.532;-1.478;2023-06-22T03:11:29;21.90;69.40
23147;DHT22;11742;53.532;-1.478;2023-06-22T03:14:13;21.90;69.40
23147;DHT22;11742;53.532;-1.478;2023-06-22T03:16:57;21.80;69.40
23147;DHT22;11742;53.532;-1.478;2023-06-22T03:19:46;21.80;69.50
23147;DHT22;11742;53.532;-1.478;2023-06-22T03:22:31;21.80;69.70
23147;DHT22;11742;53.532;-1.478;2023-06-22T03:25:15;21.80;69.80
23147;DHT22;11742;53.532;-1.478;2023-06-22T03:27:59;21.80;69.80
23147;DHT22;11742;53.532;-1.478;2023-06-22T03:30:44;21.70;69.90
23147;DHT22;11742;53.532;-1.478;2023-06-22T03:33:28;21.70;70.00
23147;DHT22;11742;53.532;-1.478;2023-06-22T03:36:13;21.70;69.90
23147;DHT22;11742;53.532;-1.478;2023-06-22T03:38:57;21.70;70.00
23147;DHT22;11742;53.532;-1.478;2023-06-22T03:41:41;21.70;70.10
23147;DHT22;11742;53.532;-1.478;2023-06-22T03:44:26;21.70;70.00
23147;DHT22;11742;53.532;-1.478;2023-06-22T03:47:10;21.60;69.90
23147;DHT22;11742;53.532;-1.478;2023-06-22T03:49:54;21.60;69.90
23147;DHT22;11742;53.532;-1.478;2023-06-22T03:52:39;21.60;70.10
23147;DHT22;11742;53.532;-1.478;2023-06-22T03:55:23;21.60;70.00
23147;DHT22;11742;53.532;-1.478;2023-06-22T03:58:08;21.60;70.10
23147;DHT22;11742;53.532;-1.478;2023-06-22T04:00:53;21.60;70.20
23147;DHT22;11742;53.532;-1.478;2023-06-22T04:03:37;21.50;70.10
23147;DHT22;11742;53.532;-1.478;2023-06-22T04:06:22;21.50;70.30
23147;DHT22;11742;53.532;-1.478;2023-06-22T04:09:06;21.50;70.20
23147;DHT22;11742;53.532;-1.478;2023-06-22T04:11:50;21.50;70.10
23147;DHT22;11742;53.532;-1.478;2023-06-22T04:14:35;21.50;70.10
23147;DHT22;11742;53.532;-1.478;2023-06-22T04:17:19;21.50;70.20
23147;DHT22;11742;53.532;-1.478;2023-06-22T04:20:03;21.50;70.20
23147;DHT22;11742;53.532;-1.478;2023-06-22T04:22:48;21.40;70.20
23147;DHT22;11742;53.532;-1.478;2023-06-22T04:25:33;21.40;71.30
23147;DHT22;11742;53.532;-1.478;2023-06-22T04:28:17;21.40;70.40
23147;DHT22;11742;53.532;-1.478;2023-06-22T04:31:02;21.40;70.40
23147;DHT22;11742;53.532;-1.478;2023-06-22T04:33:46;21.40;70.40
23147;DHT22;11742;53.532;-1.478;2023-06-22T04:36:31;21.40;70.50
23147;DHT22;11742;53.532;-1.478;2023-06-22T04:39:21;21.40;70.50
23147;DHT22;11742;53.532;-1.478;2023-06-22T04:42:05;21.30;70.60
23147;DHT22;11742;53.532;-1.478;2023-06-22T04:44:50;21.40;70.70
23147;DHT22;11742;53.532;-1.478;2023-06-22T04:47:34;21.30;70.70
23147;DHT22;11742;53.532;-1.478;2023-06-22T04:50:18;21.30;70.60
23147;DHT22;11742;53.532;-1.478;2023-06-22T04:53:04;21.30;70.50
23147;DHT22;11742;53.532;-1.478;2023-06-22T04:55:49;21.30;70.50
23147;DHT22;11742;53.532;-1.478;2023-06-22T04:58:37;21.30;70.60
23147;DHT22;11742;53.532;-1.478;2023-06-22T05:01:21;21.30;70.70
23147;DHT22;11742;53.532;-1.478;2023-06-22T05:04:06;21.30;70.80
23147;DHT22;11742;53.532;-1.478;2023-06-22T05:06:51;21.30;70.70
23147;DHT22;11742;53.532;-1.478;2023-06-22T05:09:35;21.20;70.90
23147;DHT22;11742;53.532;-1.478;2023-06-22T05:12:19;21.20;70.90
23147;DHT22;11742;53.532;-1.478;2023-06-22T05:15:04;21.20;70.90
23147;DHT22;11742;53.532;-1.478;2023-06-22T05:17:48;21.20;71.10
23147;DHT22;11742;53.532;-1.478;2023-06-22T05:20:33;21.20;71.10
23147;DHT22;11742;53.532;-1.478;2023-06-22T05:23:19;21.20;71.20
23147;DHT22;11742;53.532;-1.478;2023-06-22T05:26:04;21.20;71.30
23147;DHT22;11742;53.532;-1.478;2023-06-22T05:28:48;21.20;71.30
23147;DHT22;11742;53.532;-1.478;2023-06-22T05:31:32;21.20;71.30
23147;DHT22;11742;53.532;-1.478;2023-06-22T05:34:17;21.20;71.40
23147;DHT22;11742;53.532;-1.478;2023-06-22T05:37:01;21.20;71.50
23147;DHT22;11742;53.532;-1.478;2023-06-22T05:39:46;21.20;71.50
23147;DHT22;11742;53.532;-1.478;2023-06-22T05:42:30;21.20;71.50
23147;DHT22;11742;53.532;-1.478;2023-06-22T05:45:14;21.20;71.80
23147;DHT22;11742;53.532;-1.478;2023-06-22T05:47:58;21.20;71.90
23147;DHT22;11742;53.532;-1.478;2023-06-22T05:50:43;21.10;72.00
23147;DHT22;11742;53.532;-1.478;2023-06-22T05:53:27;21.20;72.10
23147;DHT22;11742;53.532;-1.478;2023-06-22T05:56:11;21.20;72.40
23147;DHT22;11742;53.532;-1.478;2023-06-22T05:58:56;21.20;72.30
23147;DHT22;11742;53.532;-1.478;2023-06-22T06:01:40;21.20;72.40
23147;DHT22;11742;53.532;-1.478;2023-06-22T06:04:24;21.20;72.60
23147;DHT22;11742;53.532;-1.478;2023-06-22T06:07:09;21.20;72.80
23147;DHT22;11742;53.532;-1.478;2023-06-22T06:09:53;21.20;73.00
23147;DHT22;11742;53.532;-1.478;2023-06-22T06:12:37;21.20;73.10
23147;DHT22;11742;53.532;-1.478;2023-06-22T06:15:21;21.20;73.20
23147;DHT22;11742;53.532;-1.478;2023-06-22T06:18:05;21.20;73.30
23147;DHT22;11742;53.532;-1.478;2023-06-22T06:20:50;21.30;73.40
23147;DHT22;11742;53.532;-1.478;2023-06-22T06:23:34;21.30;73.80
23147;DHT22;11742;53.532;-1.478;2023-06-22T06:26:19;21.30;74.10
23147;DHT22;11742;53.532;-1.478;2023-06-22T06:29:13;21.30;74.00
23147;DHT22;11742;53.532;-1.478;2023-06-22T06:32:00;21.40;74.60
23147;DHT22;11742;53.532;-1.478;2023-06-22T06:34:44;21.40;74.80
23147;DHT22;11742;53.532;-1.478;2023-06-22T06:37:28;21.40;75.50
23147;DHT22;11742;53.532;-1.478;2023-06-22T06:40:13;21.40;75.80
23147;DHT22;11742;53.532;-1.478;2023-06-22T06:42:57;21.50;75.90
23147;DHT22;11742;53.532;-1.478;2023-06-22T06:45:42;21.50;75.80
23147;DHT22;11742;53.532;-1.478;2023-06-22T06:48:26;21.50;75.90
23147;DHT22;11742;53.532;-1.478;2023-06-22T06:51:10;21.50;76.00
23147;DHT22;11742;53.532;-1.478;2023-06-22T06:53:54;21.60;76.40
23147;DHT22;11742;53.532;-1.478;2023-06-22T06:56:39;21.60;76.60
23147;DHT22;11742;53.532;-1.478;2023-06-22T06:59:23;21.60;76.30
23147;DHT22;11742;53.532;-1.478;2023-06-22T07:02:07;21.70;76.30
23147;DHT22;11742;53.532;-1.478;2023-06-22T07:04:51;21.70;76.20
23147;DHT22;11742;53.532;-1.478;2023-06-22T07:07:36;21.70;76.20
23147;DHT22;11742;53.532;-1.478;2023-06-22T07:10:20;21.70;76.20
23147;DHT22;11742;53.532;-1.478;2023-06-22T07:13:04;21.80;75.80
23147;DHT22;11742;53.532;-1.478;2023-06-22T07:15:48;21.80;75.70
23147;DHT22;11742;53.532;-1.478;2023-06-22T07:18:32;21.90;75.30
23147;DHT22;11742;53.532;-1.478;2023-06-22T07:21:17;21.90;74.50
23147;DHT22;11742;53.532;-1.478;2023-06-22T07:24:01;22.00;74.50
23147;DHT22;11742;53.532;-1.478;2023-06-22T07:26:46;22.00;74.60
23147;DHT22;11742;53.532;-1.478;2023-06-22T07:29:30;22.10;74.20
23147;DHT22;11742;53.532;-1.478;2023-06-22T07:32:16;22.20;74.10
23147;DHT22;11742;53.532;-1.478;2023-06-22T07:35:00;22.20;74.40
23147;DHT22;11742;53.532;-1.478;2023-06-22T07:37:45;22.30;74.10
23147;DHT22;11742;53.532;-1.478;2023-06-22T07:40:29;22.40;74.20
23147;DHT22;11742;53.532;-1.478;2023-06-22T07:43:13;22.40;73.90
23147;DHT22;11742;53.532;-1.478;2023-06-22T07:45:58;22.40;74.50
23147;DHT22;11742;53.532;-1.478;2023-06-22T07:48:42;22.50;74.40
23147;DHT22;11742;53.532;-1.478;2023-06-22T07:51:27;22.50;74.50
23147;DHT22;11742;53.532;-1.478;2023-06-22T07:54:12;22.60;74.60
23147;DHT22;11742;53.532;-1.478;2023-06-22T07:56:56;22.60;74.30
23147;DHT22;11742;53.532;-1.478;2023-06-22T07:59:40;22.70;74.80
23147;DHT22;11742;53.532;-1.478;2023-06-22T08:02:25;22.70;74.60
23147;DHT22;11742;53.532;-1.478;2023-06-22T08:05:09;22.80;74.00
23147;DHT22;11742;53.532;-1.478;2023-06-22T08:07:53;22.80;74.30
23147;DHT22;11742;53.532;-1.478;2023-06-22T08:10:39;22.90;74.50
23147;DHT22;11742;53.532;-1.478;2023-06-22T08:13:23;22.90;75.00
23147;DHT22;11742;53.532;-1.478;2023-06-22T08:16:07;23.00;74.10
23147;DHT22;11742;53.532;-1.478;2023-06-22T08:18:51;23.00;74.60
23147;DHT22;11742;53.532;-1.478;2023-06-22T08:21:36;23.00;75.00
23147;DHT22;11742;53.532;-1.478;2023-06-22T08:24:20;23.10;74.70
23147;DHT22;11742;53.532;-1.478;2023-06-22T08:27:06;23.10;74.30
23147;DHT22;11742;53.532;-1.478;2023-06-22T08:29:52;23.10;74.00
23147;DHT22;11742;53.532;-1.478;2023-06-22T08:32:42;23.20;74.20
23147;DHT22;11742;53.532;-1.478;2023-06-22T08:35:26;23.20;74.20
23147;DHT22;11742;53.532;-1.478;2023-06-22T08:38:10;23.30;74.70
23147;DHT22;11742;53.532;-1.478;2023-06-22T08:40:54;23.30;74.50
23147;DHT22;11742;53.532;-1.478;2023-06-22T08:43:39;23.30;74.10
23147;DHT22;11742;53.532;-1.478;2023-06-22T08:46:23;23.30;74.50
23147;DHT22;11742;53.532;-1.478;2023-06-22T08:49:14;23.40;74.30
23147;DHT22;11742;53.532;-1.478;2023-06-22T08:51:58;23.40;74.50
23147;DHT22;11742;53.532;-1.478;2023-06-22T08:54:43;23.40;74.50
23147;DHT22;11742;53.532;-1.478;2023-06-22T08:57:27;23.40;73.90
23147;DHT22;11742;53.532;-1.478;2023-06-22T09:00:12;23.50;75.00
23147;DHT22;11742;53.532;-1.478;2023-06-22T09:03:05;23.50;75.90
23147;DHT22;11742;53.532;-1.478;2023-06-22T09:05:49;23.50;74.70
23147;DHT22;11742;53.532;-1.478;2023-06-22T09:08:33;23.60;74.40
23147;DHT22;11742;53.532;-1.478;2023-06-22T09:11:17;23.60;75.10
23147;DHT22;11742;53.532;-1.478;2023-06-22T09:14:02;23.60;74.60
23147;DHT22;11742;53.532;-1.478;2023-06-22T09:16:47;23.70;73.10
23147;DHT22;11742;53.532;-1.478;2023-06-22T09:19:31;23.80;72.10
23147;DHT22;11742;53.532;-1.478;2023-06-22T09:22:16;23.90;72.00
23147;DHT22;11742;53.532;-1.478;2023-06-22T09:25:00;24.00;72.00
23147;DHT22;11742;53.532;-1.478;2023-06-22T09:27:44;24.00;72.00
23147;DHT22;11742;53.532;-1.478;2023-06-22T09:30:28;24.20;72.10
23147;DHT22;11742;53.532;-1.478;2023-06-22T09:33:13;24.30;72.20
23147;DHT22;11742;53.532;-1.478;2023-06-22T09:35:57;24.40;72.30
23147;DHT22;11742;53.532;-1.478;2023-06-22T09:38:41;24.50;72.40
23147;DHT22;11742;53.532;-1.478;2023-06-22T09:41:25;24.60;72.40
23147;DHT22;11742;53.532;-1.478;2023-06-22T09:44:10;24.70;72.40
23147;DHT22;11742;53.532;-1.478;2023-06-22T09:46:54;24.80;72.50
23147;DHT22;11742;53.532;-1.478;2023-06-22T09:49:38;24.90;72.50
23147;DHT22;11742;53.532;-1.478;2023-06-22T09:52:22;25.10;72.50
23147;DHT22;11742;53.532;-1.478;2023-06-22T09:55:06;25.10;72.40
23147;DHT22;11742;53.532;-1.478;2023-06-22T09:57:51;25.20;72.30
23147;DHT22;11742;53.532;-1.478;2023-06-22T10:00:35;25.30;72.30
23147;DHT22;11742;53.532;-1.478;2023-06-22T10:03:19;25.40;72.30
23147;DHT22;11742;53.532;-1.478;2023-06-22T10:06:04;25.50;72.40
23147;DHT22;11742;53.532;-1.478;2023-06-22T10:08:49;25.60;72.30
23147;DHT22;11742;53.532;-1.478;2023-06-22T10:11:34;25.70;72.30
23147;DHT22;11742;53.532;-1.478;2023-06-22T10:14:19;25.70;72.30
23147;DHT22;11742;53.532;-1.478;2023-06-22T10:17:03;25.80;72.20
23147;DHT22;11742;53.532;-1.478;2023-06-22T10:19:47;25.90;72.20
23147;DHT22;11742;53.532;-1.478;2023-06-22T10:22:31;26.00;72.20
23147;DHT22;11742;53.532;-1.478;2023-06-22T10:25:16;26.10;72.20
23147;DHT22;11742;53.532;-1.478;2023-06-22T10:28:00;26.10;72.10
23147;DHT22;11742;53.532;-1.478;2023-06-22T10:30:44;26.20;72.00
23147;DHT22;11742;53.532;-1.478;2023-06-22T10:33:28;26.20;71.80
23147;DHT22;11742;53.532;-1.478;2023-06-22T10:36:13;26.30;71.90
23147;DHT22;11742;53.532;-1.478;2023-06-22T10:38:57;26.30;71.80
23147;DHT22;11742;53.532;-1.478;2023-06-22T10:41:43;26.40;71.80
23147;DHT22;11742;53.532;-1.478;2023-06-22T10:44:28;26.50;71.70
23147;DHT22;11742;53.532;-1.478;2023-06-22T10:47:12;26.60;71.70
23147;DHT22;11742;53.532;-1.478;2023-06-22T10:49:56;26.60;71.60
23147;DHT22;11742;53.532;-1.478;2023-06-22T10:52:40;26.60;71.20
23147;DHT22;11742;53.532;-1.478;2023-06-22T10:55:28;26.70;71.10
23147;DHT22;11742;53.532;-1.478;2023-06-22T10:58:12;26.70;71.40
23147;DHT22;11742;53.532;-1.478;2023-06-22T11:00:56;26.80;71.40
23147;DHT22;11742;53.532;-1.478;2023-06-22T11:03:40;26.90;71.50
23147;DHT22;11742;53.532;-1.478;2023-06-22T11:06:24;26.90;71.40
23147;DHT22;11742;53.532;-1.478;2023-06-22T11:09:08;27.00;71.30
23147;DHT22;11742;53.532;-1.478;2023-06-22T11:11:53;27.00;70.70
23147;DHT22;11742;53.532;-1.478;2023-06-22T11:14:38;27.00;70.40
23147;DHT22;11742;53.532;-1.478;2023-06-22T11:17:22;27.10;69.70
23147;DHT22;11742;53.532;-1.478;2023-06-22T11:20:07;27.10;69.70
23147;DHT22;11742;53.532;-1.478;2023-06-22T11:22:54;27.10;69.80
23147;DHT22;11742;53.532;-1.478;2023-06-22T11:25:39;27.10;69.60
23147;DHT22;11742;53.532;-1.478;2023-06-22T11:28:25;27.20;69.40
23147;DHT22;11742;53.532;-1.478;2023-06-22T11:31:10;27.20;68.70
23147;DHT22;11742;53.532;-1.478;2023-06-22T11:33:54;27.20;68.70
23147;DHT22;11742;53.532;-1.478;2023-06-22T11:36:38;27.20;68.60
23147;DHT22;11742;53.532;-1.478;2023-06-22T11:39:22;27.20;68.60
23147;DHT22;11742;53.532;-1.478;2023-06-22T11:42:07;27.20;69.20
23147;DHT22;11742;53.532;-1.478;2023-06-22T11:44:51;27.20;68.80
23147;DHT22;11742;53.532;-1.478;2023-06-22T11:47:35;27.30;68.80
23147;DHT22;11742;53.532;-1.478;2023-06-22T11:50:19;27.30;68.30
23147;DHT22;11742;53.532;-1.478;2023-06-22T11:53:04;27.30;68.60
23147;DHT22;11742;53.532;-1.478;2023-06-22T11:55:48;27.30;68.40
23147;DHT22;11742;53.532;-1.478;2023-06-22T11:58:32;27.30;68.90
23147;DHT22;11742;53.532;-1.478;2023-06-22T12:01:17;27.30;69.00
23147;DHT22;11742;53.532;-1.478;2023-06-22T12:04:01;27.30;68.30
23147;DHT22;11742;53.532;-1.478;2023-06-22T12:06:49;27.30;67.70
23147;DHT22;11742;53.532;-1.478;2023-06-22T12:09:33;27.30;67.70
23147;DHT22;11742;53.532;-1.478;2023-06-22T12:12:17;27.30;67.10
23147;DHT22;11742;53.532;-1.478;2023-06-22T12:15:01;27.30;66.70
23147;DHT22;11742;53.532;-1.478;2023-06-22T12:17:47;27.30;67.30
23147;DHT22;11742;53.532;-1.478;2023-06-22T12:20:32;27.30;67.20
23147;DHT22;11742;53.532;-1.478;2023-06-22T12:23:16;27.20;67.90
23147;DHT22;11742;53.532;-1.478;2023-06-22T12:26:00;27.20;68.20
23147;DHT22;11742;53.532;-1.478;2023-06-22T12:28:45;27.20;68.60
23147;DHT22;11742;53.532;-1.478;2023-06-22T12:31:29;27.20;68.70
23147;DHT22;11742;53.532;-1.478;2023-06-22T12:34:13;27.20;69.80
23147;DHT22;11742;53.532;-1.478;2023-06-22T12:36:57;27.20;70.40
23147;DHT22;11742;53.532;-1.478;2023-06-22T12:39:42;27.20;71.00
23147;DHT22;11742;53.532;-1.478;2023-06-22T12:42:26;27.10;71.50
23147;DHT22;11742;53.532;-1.478;2023-06-22T12:45:12;27.10;71.20
23147;DHT22;11742;53.532;-1.478;2023-06-22T12:47:56;27.10;71.30
23147;DHT22;11742;53.532;-1.478;2023-06-22T12:50:40;27.00;71.30
23147;DHT22;11742;53.532;-1.478;2023-06-22T12:53:25;27.00;71.70
23147;DHT22;11742;53.532;-1.478;2023-06-22T12:56:11;27.00;71.70
23147;DHT22;11742;53.532;-1.478;2023-06-22T12:58:55;27.00;72.10
23147;DHT22;11742;53.532;-1.478;2023-06-22T13:01:39;27.00;73.10
23147;DHT22;11742;53.532;-1.478;2023-06-22T13:04:24;26.90;72.90
23147;DHT22;11742;53.532;-1.478;2023-06-22T13:07:08;26.90;72.80
23147;DHT22;11742;53.532;-1.478;2023-06-22T13:09:52;26.90;72.80
23147;DHT22;11742;53.532;-1.478;2023-06-22T13:12:36;26.90;73.20
23147;DHT22;11742;53.532;-1.478;2023-06-22T13:15:20;26.90;74.00
23147;DHT22;11742;53.532;-1.478;2023-06-22T13:18:05;26.90;74.50
23147;DHT22;11742;53.532;-1.478;2023-06-22T13:20:49;26.90;74.20
23147;DHT22;11742;53.532;-1.478;2023-06-22T13:23:33;26.90;74.70
23147;DHT22;11742;53.532;-1.478;2023-06-22T13:26:17;26.90;74.90
23147;DHT22;11742;53.532;-1.478;2023-06-22T13:29:02;26.90;75.50
23147;DHT22;11742;53.532;-1.478;2023-06-22T13:31:46;26.90;75.00
23147;DHT22;11742;53.532;-1.478;2023-06-22T13:34:30;27.00;74.60
23147;DHT22;11742;53.532;-1.478;2023-06-22T13:37:14;27.00;74.30
23147;DHT22;11742;53.532;-1.478;2023-06-22T13:39:58;27.00;73.80
23147;DHT22;11742;53.532;-1.478;2023-06-22T13:42:43;27.00;73.30
23147;DHT22;11742;53.532;-1.478;2023-06-22T13:45:27;27.10;73.20
23147;DHT22;11742;53.532;-1.478;2023-06-22T13:48:12;27.10;73.40
23147;DHT22;11742;53.532;-1.478;2023-06-22T13:50:57;27.10;73.90
23147;DHT22;11742;53.532;-1.478;2023-06-22T13:53:41;27.10;73.50
23147;DHT22;11742;53.532;-1.478;2023-06-22T13:56:25;27.10;73.30
23147;DHT22;11742;53.532;-1.478;2023-06-22T13:59:09;27.10;73.10
23147;DHT22;11742;53.532;-1.478;2023-06-22T14:01:53;27.20;72.30
23147;DHT22;11742;53.532;-1.478;2023-06-22T14:04:38;27.20;71.10
23147;DHT22;11742;53.532;-1.478;2023-06-22T14:07:22;27.20;70.60
23147;DHT22;11742;53.532;-1.478;2023-06-22T14:10:07;27.20;70.50
23147;DHT22;11742;53.532;-1.478;2023-06-22T14:12:52;27.20;69.60
23147;DHT22;11742;53.532;-1.478;2023-06-22T14:15:37;27.20;69.50
23147;DHT22;11742;53.532;-1.478;2023-06-22T14:18:21;27.30;69.20
23147;DHT22;11742;53.532;-1.478;2023-06-22T14:21:07;27.30;69.70
23147;DHT22;11742;53.532;-1.478;2023-06-22T14:23:51;27.30;70.20
23147;DHT22;11742;53.532;-1.478;2023-06-22T14:26:35;27.30;69.80
23147;DHT22;11742;53.532;-1.478;2023-06-22T14:29:19;27.40;69.20
23147;DHT22;11742;53.532;-1.478;2023-06-22T14:32:04;27.40;69.10
23147;DHT22;11742;53.532;-1.478;2023-06-22T14:34:50;27.50;68.20
23147;DHT22;11742;53.532;-1.478;2023-06-22T14:37:34;27.50;67.80
23147;DHT22;11742;53.532;-1.478;2023-06-22T14:40:18;27.50;67.00
23147;DHT22;11742;53.532;-1.478;2023-06-22T14:43:03;27.50;66.80
23147;DHT22;11742;53.532;-1.478;2023-06-22T14:45:47;27.60;67.20
23147;DHT22;11742;53.532;-1.478;2023-06-22T14:48:31;27.60;66.90
23147;DHT22;11742;53.532;-1.478;2023-06-22T14:51:15;27.70;66.50
23147;DHT22;11742;53.532;-1.478;2023-06-22T14:54:00;27.70;65.90
23147;DHT22;11742;53.532;-1.478;2023-06-22T14:56:44;27.70;65.90
23147;DHT22;11742;53.532;-1.478;2023-06-22T14:59:28;27.80;66.70
23147;DHT22;11742;53.532;-1.478;2023-06-22T15:02:12;27.80;66.30
23147;DHT22;11742;53.532;-1.478;2023-06-22T15:04:56;27.90;66.30
23147;DHT22;11742;53.532;-1.478;2023-06-22T15:07:41;27.90;66.30
23147;DHT22;11742;53.532;-1.478;2023-06-22T15:10:25;27.90;66.20
23147;DHT22;11742;53.532;-1.478;2023-06-22T15:13:09;28.00;65.80
23147;DHT22;11742;53.532;-1.478;2023-06-22T15:15:53;28.10;65.70
23147;DHT22;11742;53.532;-1.478;2023-06-22T15:18:37;28.10;65.40
23147;DHT22;11742;53.532;-1.478;2023-06-22T15:21:22;28.10;65.00
23147;DHT22;11742;53.532;-1.478;2023-06-22T15:24:06;28.20;65.30
23147;DHT22;11742;53.532;-1.478;2023-06-22T15:26:51;28.20;65.70
23147;DHT22;11742;53.532;-1.478;2023-06-22T15:29:35;28.30;66.00
23147;DHT22;11742;53.532;-1.478;2023-06-22T15:32:19;28.30;65.80
23147;DHT22;11742;53.532;-1.478;2023-06-22T15:35:03;28.40;64.70
23147;DHT22;11742;53.532;-1.478;2023-06-22T15:37:47;28.40;65.00
23147;DHT22;11742;53.532;-1.478;2023-06-22T15:40:32;28.40;65.50
23147;DHT22;11742;53.532;-1.478;2023-06-22T15:43:16;28.40;64.70
23147;DHT22;11742;53.532;-1.478;2023-06-22T15:46:00;28.50;64.80
23147;DHT22;11742;53.532;-1.478;2023-06-22T15:48:44;28.50;64.80
23147;DHT22;11742;53.532;-1.478;2023-06-22T15:51:29;28.50;64.60
23147;DHT22;11742;53.532;-1.478;2023-06-22T15:54:14;28.60;64.50
23147;DHT22;11742;53.532;-1.478;2023-06-22T15:56:58;28.60;64.60
23147;DHT22;11742;53.532;-1.478;2023-06-22T15:59:42;28.60;64.40
23147;DHT22;11742;53.532;-1.478;2023-06-22T16:02:27;28.60;65.00
23147;DHT22;11742;53.532;-1.478;2023-06-22T16:05:11;28.60;65.50
23147;DHT22;11742;53.532;-1.478;2023-06-22T16:07:56;28.60;65.90
23147;DHT22;11742;53.532;-1.478;2023-06-22T16:10:40;28.60;66.40
23147;DHT22;11742;53.532;-1.478;2023-06-22T16:13:24;28.60;66.60
23147;DHT22;11742;53.532;-1.478;2023-06-22T16:16:08;28.60;67.00
23147;DHT22;11742;53.532;-1.478;2023-06-22T16:18:53;28.60;67.20
23147;DHT22;11742;53.532;-1.478;2023-06-22T16:21:37;28.60;67.00
23147;DHT22;11742;53.532;-1.478;2023-06-22T16:24:21;28.60;67.10
23147;DHT22;11742;53.532;-1.478;2023-06-22T16:27:06;28.70;67.60
23147;DHT22;11742;53.532;-1.478;2023-06-22T16:29:50;28.70;68.00
23147;DHT22;11742;53.532;-1.478;2023-06-22T16:32:35;28.70;67.90
23147;DHT22;11742;53.532;-1.478;2023-06-22T16:35:22;28.60;68.10
23147;DHT22;11742;53.532;-1.478;2023-06-22T16:38:06;28.70;67.50
23147;DHT22;11742;53.532;-1.478;2023-06-22T16:40:50;28.70;66.40
23147;DHT22;11742;53.532;-1.478;2023-06-22T16:43:38;28.60;66.40
23147;DHT22;11742;53.532;-1.478;2023-06-22T16:46:25;28.60;67.00
23147;DHT22;11742;53.532;-1.478;2023-06-22T16:49:09;28.70;67.10
23147;DHT22;11742;53.532;-1.478;2023-06-22T16:51:53;28.70;66.80
23147;DHT22;11742;53.532;-1.478;2023-06-22T16:54:37;28.70;66.50
23147;DHT22;11742;53.532;-1.478;2023-06-22T16:57:23;28.70;66.30
23147;DHT22;11742;53.532;-1.478;2023-06-22T17:00:08;28.70;66.20
23147;DHT22;11742;53.532;-1.478;2023-06-22T17:02:53;28.70;65.80
23147;DHT22;11742;53.532;-1.478;2023-06-22T17:05:37;28.70;65.50
23147;DHT22;11742;53.532;-1.478;2023-06-22T17:08:23;28.70;65.70
23147;DHT22;11742;53.532;-1.478;2023-06-22T17:11:09;28.70;65.00
23147;DHT22;11742;53.532;-1.478;2023-06-22T17:13:53;28.70;64.50
23147;DHT22;11742;53.532;-1.478;2023-06-22T17:16:38;28.70;64.00